Dickey, North Dakota
Current Conditions -  °F | °C
As of 10:10 PM on Tuesday 25 Nov 2014 (Local Time) from KJMS Reporting Station
Light Snow Light Snow  
Wind Chill: -18°   Ceiling: 1300
Heat Index: -8°   Visibility: 1mi
Dew Point: -10°   Wind: 24mph
Humidity: 88%   Direction: 40°NE
Pressure: 29.97"   Gusts: 32mph
Location:  46.54°N, 98.47°W
Report Text: KJMS 260410Z AUTO 04021G28KT 1SM -SN BR FEW009 OVC013 M08/M10 A2997 RMK AO2 PK WND 04028/0406 P0000 T10831100
Loading
Personal Weather Stations






























Interactive Weather Map New forecast layout! Learn more

10-Day Weather Forecast

Advertisements
Track Severe Weather on mobile